Time;durP1;ratioP1;P1;durP2;ratioP2;P2;SDS_P1;SDS_P2;PMS_P1;PMS_P2;Temp;Humidity;BMP_temperature;BMP_pressure;BME280_temperature;BME280_humidity;BME280_pressure;Samples;Min_cycle;Max_cycle;Signal;HPM_P1;HPM_P2
2022/01/07 00:00:50;;;;;;;4.40;2.23;;;-0.70;99.90;;;;;;4898685;29;20043;-87
2022/01/07 06:57:21;;;;;;;9.13;3.33;;;-1.60;99.90;;;;;;5492441;23;20059;-90
2022/01/07 06:59:46;;;;;;;10.10;3.50;;;-1.60;99.90;;;;;;4941820;29;20028;-90
2022/01/07 07:02:12;;;;;;;10.77;3.30;;;-1.60;99.90;;;;;;4947778;28;20031;-89
2022/01/07 07:04:38;;;;;;;8.27;3.00;;;-1.60;99.90;;;;;;4948809;29;20038;-88
2022/01/07 07:07:03;;;;;;;10.37;3.03;;;-1.60;99.90;;;;;;4952398;29;20516;-89
2022/01/07 07:09:29;;;;;;;7.90;3.53;;;-1.60;99.90;;;;;;4936477;28;20027;-90
2022/01/07 07:11:55;;;;;;;6.53;3.13;;;-1.60;99.90;;;;;;4958320;28;20509;-90
2022/01/07 07:14:20;;;;;;;8.30;2.87;;;-1.60;99.90;;;;;;4956270;28;20089;-90
2022/01/07 07:16:46;;;;;;;7.43;3.30;;;-1.60;99.90;;;;;;4966269;28;20089;-87
2022/01/07 07:19:12;;;;;;;8.33;3.37;;;-1.60;99.90;;;;;;4935459;29;20067;-90
2022/01/07 07:21:38;;;;;;;9.03;3.50;;;-1.50;99.90;;;;;;4939867;29;20050;-90
2022/01/07 07:24:04;;;;;;;7.60;3.33;;;-1.50;99.90;;;;;;4944800;29;20376;-90
2022/01/07 07:26:29;;;;;;;8.70;3.50;;;-1.50;99.90;;;;;;4934584;29;20031;-90
2022/01/07 07:28:55;;;;;;;6.60;2.97;;;-1.50;99.90;;;;;;4917299;29;20034;-89
2022/01/07 07:31:21;;;;;;;7.63;2.83;;;-1.50;99.90;;;;;;4953718;28;20027;-89
2022/01/07 07:36:31;;;;;;;8.97;3.17;;;-1.50;99.90;;;;;;4973137;28;20074;-90
2022/01/07 07:39:03;;;;;;;6.80;2.57;;;-1.50;99.90;;;;;;4969538;28;20375;-89
2022/01/07 07:41:29;;;;;;;8.63;3.13;;;-1.40;99.90;;;;;;4955473;28;20195;-90
2022/01/07 07:43:57;;;;;;;6.93;2.93;;;-1.40;99.90;;;;;;4972732;28;20031;-89
2022/01/07 07:46:23;;;;;;;7.97;3.40;;;-1.40;99.90;;;;;;4966634;28;20019;-90
2022/01/07 07:48:51;;;;;;;6.73;2.97;;;-1.40;99.90;;;;;;4935727;29;20463;-89
2022/01/07 07:51:18;;;;;;;4.93;2.43;;;-1.30;99.90;;;;;;4936098;29;20024;-90
2022/01/07 07:53:44;;;;;;;8.90;3.40;;;-1.30;99.90;;;;;;4936088;29;20463;-89
2022/01/07 07:56:12;;;;;;;9.27;3.20;;;-1.30;99.90;;;;;;4949913;28;20030;-89
2022/01/07 07:58:38;;;;;;;7.80;3.30;;;-1.30;99.90;;;;;;4970985;28;20041;-89
2022/01/07 08:01:05;;;;;;;7.80;3.10;;;-1.20;99.90;;;;;;4964477;28;20030;-89
2022/01/07 08:03:30;;;;;;;7.10;3.30;;;-1.20;99.90;;;;;;4940177;29;20031;-88
2022/01/07 08:05:56;;;;;;;8.03;3.60;;;-1.10;99.90;;;;;;4938627;28;20085;-87
2022/01/07 08:08:21;;;;;;;11.57;3.77;;;-1.00;99.90;;;;;;4972167;28;20034;-88
2022/01/07 08:10:54;;;;;;;6.10;3.00;;;-0.90;99.90;;;;;;4963088;28;20146;-89
2022/01/07 08:16:01;;;;;;;6.05;2.67;;;-0.90;99.90;;;;;;4968094;28;20156;-89
2022/01/07 08:18:32;;;;;;;8.33;3.33;;;-0.90;99.90;;;;;;4971241;28;20118;-88
2022/01/07 08:21:07;;;;;;;10.77;3.40;;;-0.80;99.90;;;;;;4964469;28;20655;-88
2022/01/07 08:23:33;;;;;;;9.87;2.93;;;-0.80;99.90;;;;;;4950932;29;20558;-88
2022/01/07 08:25:59;;;;;;;7.27;3.20;;;-0.80;99.90;;;;;;4936051;29;20090;-89
2022/01/07 08:28:29;;;;;;;7.17;2.87;;;-0.70;99.90;;;;;;4935591;29;20087;-89
2022/01/07 08:36:19;;;;;;;8.53;3.00;;;-0.60;99.90;;;;;;4972130;28;20082;-89
2022/01/07 08:38:46;;;;;;;8.13;3.10;;;-0.60;99.90;;;;;;4974125;28;20138;-88
2022/01/07 08:41:11;;;;;;;8.23;2.97;;;-0.60;99.90;;;;;;4974193;28;20479;-88
2022/01/07 08:43:37;;;;;;;8.90;3.13;;;-0.60;99.90;;;;;;4973118;28;20045;-88
2022/01/07 08:46:05;;;;;;;7.93;3.00;;;-0.60;99.90;;;;;;4972437;28;20054;-88
2022/01/07 08:48:31;;;;;;;6.70;2.77;;;-0.50;99.90;;;;;;4973873;28;20031;-89
2022/01/07 08:50:57;;;;;;;5.50;2.53;;;-0.50;99.90;;;;;;4957989;28;20122;-89
2022/01/07 08:53:23;;;;;;;8.87;3.30;;;-0.50;99.90;;;;;;4974051;28;20022;-88
2022/01/07 08:55:49;;;;;;;6.77;2.73;;;-0.50;99.90;;;;;;4972223;28;20368;-88
2022/01/07 08:58:15;;;;;;;6.17;2.50;;;-0.40;99.90;;;;;;4973697;28;20039;-89
2022/01/07 09:00:41;;;;;;;10.33;2.63;;;-0.40;99.90;;;;;;4974174;28;20039;-89
2022/01/07 09:03:06;;;;;;;7.30;2.70;;;-0.50;99.90;;;;;;4974034;28;20034;-89
2022/01/07 09:05:32;;;;;;;5.70;3.00;;;-0.40;99.90;;;;;;4963490;28;20042;-88
2022/01/07 09:07:58;;;;;;;7.03;2.77;;;-0.50;99.90;;;;;;4955579;28;20467;-88
2022/01/07 09:10:23;;;;;;;6.37;2.90;;;-0.50;99.90;;;;;;4961206;28;20026;-88
2022/01/07 09:12:49;;;;;;;8.37;2.93;;;-0.40;99.90;;;;;;4973825;28;20019;-89
2022/01/07 09:15:15;;;;;;;6.80;2.70;;;-0.40;99.90;;;;;;4972300;28;20038;-89
2022/01/07 09:17:41;;;;;;;6.13;2.60;;;-0.30;99.90;;;;;;4973784;28;20057;-89
2022/01/07 09:20:08;;;;;;;7.63;3.03;;;-0.30;99.90;;;;;;4957581;28;20023;-89
2022/01/07 09:22:35;;;;;;;7.17;2.97;;;-0.30;99.90;;;;;;4967985;28;20069;-89
2022/01/07 09:25:01;;;;;;;9.20;2.40;;;-0.30;99.90;;;;;;4938207;29;20028;-89
2022/01/07 09:27:26;;;;;;;7.10;2.73;;;-0.30;99.90;;;;;;4919536;29;20023;-88
2022/01/07 09:29:52;;;;;;;6.20;2.60;;;-0.20;99.90;;;;;;4919083;29;20028;-89
2022/01/07 09:32:18;;;;;;;7.47;3.17;;;-0.20;99.90;;;;;;4930670;29;20038;-89
2022/01/07 09:34:44;;;;;;;5.57;2.40;;;-0.20;99.90;;;;;;4955552;29;20094;-88
2022/01/07 09:37:09;;;;;;;6.53;2.43;;;-0.10;99.90;;;;;;4954325;28;20031;-89
2022/01/07 09:39:36;;;;;;;6.60;2.27;;;-0.10;99.90;;;;;;4953685;28;20407;-89
2022/01/07 09:42:04;;;;;;;6.53;2.70;;;-0.10;99.90;;;;;;4953175;28;20038;-89
2022/01/07 09:44:30;;;;;;;7.97;2.53;;;-0.10;99.90;;;;;;4953933;29;20114;-89
2022/01/07 09:46:56;;;;;;;5.80;2.23;;;-0.10;99.90;;;;;;4953972;28;20131;-88
2022/01/07 09:49:22;;;;;;;6.63;2.30;;;0.00;99.90;;;;;;4962038;28;20038;-89
2022/01/07 09:51:47;;;;;;;5.83;2.53;;;0.00;99.90;;;;;;4949302;28;20031;-89
2022/01/07 09:54:13;;;;;;;7.30;3.27;;;0.00;99.90;;;;;;4954064;29;20034;-89
2022/01/07 09:56:39;;;;;;;5.50;2.87;;;0.10;99.90;;;;;;4953948;28;20058;-89
2022/01/07 09:59:07;;;;;;;8.90;3.37;;;0.10;99.90;;;;;;4955876;29;20031;-87
2022/01/07 10:01:58;;;;;;;8.17;3.20;;;0.10;99.90;;;;;;4936106;29;20028;-88
2022/01/07 10:04:30;;;;;;;9.53;3.03;;;0.20;99.90;;;;;;4934613;29;20058;-88
2022/01/07 10:07:17;;;;;;;6.18;2.60;;;0.20;99.90;;;;;;4934831;29;20040;-89
2022/01/07 10:10:12;;;;;;;5.80;2.57;;;0.10;99.90;;;;;;4945719;28;20045;-89
2022/01/07 10:12:55;;;;;;;9.73;2.73;;;0.10;99.90;;;;;;4972569;28;20027;-89
2022/01/07 10:15:24;;;;;;;8.27;2.87;;;0.10;99.90;;;;;;4972633;28;20037;-89
2022/01/07 10:18:01;;;;;;;8.73;2.80;;;0.00;99.90;;;;;;4970630;28;20031;-89
2022/01/07 10:20:33;;;;;;;7.90;2.60;;;0.10;99.90;;;;;;4956495;28;20054;-89
2022/01/07 10:23:01;;;;;;;5.82;2.58;;;0.10;99.90;;;;;;4972632;28;20038;-89
2022/01/07 10:25:31;;;;;;;6.10;2.13;;;0.10;99.90;;;;;;4934306;29;20055;-89
2022/01/07 10:28:06;;;;;;;4.60;1.80;;;0.10;99.90;;;;;;4949260;28;20027;-89
2022/01/07 10:30:45;;;;;;;6.70;2.13;;;0.20;99.90;;;;;;4956366;28;20115;-89
2022/01/07 10:33:37;;;;;;;5.63;2.13;;;0.20;99.90;;;;;;4956442;28;20561;-89
2022/01/07 10:36:09;;;;;;;4.50;2.10;;;0.20;99.90;;;;;;4947300;29;20042;-90
2022/01/07 10:38:44;;;;;;;6.80;2.38;;;0.20;99.90;;;;;;4952813;29;20431;-88
2022/01/07 10:41:12;;;;;;;6.20;2.30;;;0.20;99.90;;;;;;4954411;29;20058;-89
2022/01/07 10:43:38;;;;;;;6.63;2.53;;;0.20;99.90;;;;;;4952833;29;20102;-89
2022/01/07 10:46:27;;;;;;;8.93;2.70;;;0.30;99.90;;;;;;4967941;28;20526;-89
2022/01/07 10:48:57;;;;;;;11.13;2.87;;;0.30;99.90;;;;;;4971718;28;20022;-89
2022/01/07 10:51:24;;;;;;;5.50;1.83;;;0.30;99.90;;;;;;4972113;28;20026;-89
2022/01/07 10:53:56;;;;;;;9.40;2.50;;;0.20;99.90;;;;;;4970652;28;20127;-88
2022/01/07 10:56:24;;;;;;;4.50;2.00;;;0.20;99.90;;;;;;4971939;28;20037;-89
2022/01/07 10:58:55;;;;;;;7.17;2.27;;;0.20;99.90;;;;;;4973076;28;20039;-89
2022/01/07 11:01:21;;;;;;;6.13;2.17;;;0.20;99.90;;;;;;4971745;28;20126;-89
2022/01/07 11:03:52;;;;;;;5.27;2.43;;;0.20;99.90;;;;;;4955819;28;20118;-89
2022/01/07 11:06:18;;;;;;;5.47;2.00;;;0.20;99.90;;;;;;4955942;28;20037;-89
2022/01/07 11:08:47;;;;;;;8.13;2.80;;;0.20;99.90;;;;;;4969356;28;20070;-89
2022/01/07 11:11:13;;;;;;;6.80;2.27;;;0.10;99.90;;;;;;4966145;28;20019;-88
2022/01/07 11:13:39;;;;;;;7.80;2.47;;;0.10;99.90;;;;;;4973246;28;20613;-88
2022/01/07 11:16:05;;;;;;;10.43;3.00;;;0.10;99.90;;;;;;4973039;28;20054;-88
2022/01/07 11:18:32;;;;;;;5.13;2.20;;;0.10;99.90;;;;;;4969845;28;20544;-89
2022/01/07 11:20:59;;;;;;;8.83;2.77;;;0.20;99.90;;;;;;4972030;28;20062;-89
2022/01/07 11:23:28;;;;;;;7.10;2.33;;;0.20;99.90;;;;;;4949208;29;20016;-90
2022/01/07 11:26:09;;;;;;;5.63;2.37;;;0.20;99.90;;;;;;4923310;28;20482;-90
2022/01/07 11:28:36;;;;;;;8.83;2.43;;;0.20;99.90;;;;;;4971681;28;20042;-89
2022/01/07 11:31:13;;;;;;;6.27;2.53;;;0.20;99.90;;;;;;4955556;28;20391;-90
2022/01/07 11:33:40;;;;;;;8.10;2.67;;;0.30;99.90;;;;;;4971550;28;20027;-89
2022/01/07 11:36:32;;;;;;;7.40;3.10;;;0.30;99.90;;;;;;4971304;28;20035;-89
2022/01/07 11:39:03;;;;;;;7.30;2.90;;;0.40;99.90;;;;;;4955241;28;20105;-90
2022/01/07 11:41:50;;;;;;;7.27;3.30;;;0.40;99.90;;;;;;4957319;28;20061;-89
2022/01/07 11:44:29;;;;;;;7.87;2.90;;;0.50;99.90;;;;;;4970914;28;20405;-89
2022/01/07 11:47:21;;;;;;;7.70;2.73;;;0.70;99.90;;;;;;4971724;28;20061;-89
2022/01/07 11:50:08;;;;;;;5.47;2.23;;;0.90;99.90;;;;;;4955548;28;20479;-89
2022/01/07 11:52:37;;;;;;;6.67;2.37;;;1.00;99.90;;;;;;4971896;28;20029;-89
2022/01/07 11:55:18;;;;;;;8.17;3.07;;;1.20;99.90;;;;;;4937340;29;20028;-89
2022/01/07 11:57:48;;;;;;;6.13;2.37;;;1.30;99.90;;;;;;4952462;28;20260;-88
2022/01/07 12:00:14;;;;;;;5.63;2.20;;;1.40;99.90;;;;;;4955010;29;20035;-90
2022/01/07 12:03:01;;;;;;;10.40;2.60;;;1.40;99.90;;;;;;4972434;28;20537;-90
2022/01/07 12:05:31;;;;;;;5.37;2.50;;;1.40;99.90;;;;;;4975318;28;20054;-90
2022/01/07 12:07:57;;;;;;;5.40;1.97;;;1.40;99.90;;;;;;4977710;28;20027;-90
2022/01/07 12:10:22;;;;;;;6.93;3.00;;;1.30;99.90;;;;;;4976183;28;20082;-90
2022/01/07 12:12:50;;;;;;;6.10;2.73;;;1.30;99.90;;;;;;4977310;28;20070;-89
2022/01/07 12:15:16;;;;;;;4.67;2.60;;;1.30;99.90;;;;;;4959881;28;20038;-89
2022/01/07 12:17:42;;;;;;;6.03;1.80;;;1.20;99.90;;;;;;4975498;28;20022;-90
2022/01/07 12:20:23;;;;;;;5.87;1.87;;;1.20;99.90;;;;;;4975416;28;20475;-91
2022/01/07 12:22:50;;;;;;;8.40;2.50;;;1.20;99.90;;;;;;4959105;28;20038;-90
2022/01/07 12:25:16;;;;;;;7.03;2.40;;;1.30;99.90;;;;;;4956780;28;20039;-87
2022/01/07 12:27:42;;;;;;;4.47;2.30;;;1.20;99.90;;;;;;4956014;29;20024;-86
2022/01/07 12:30:10;;;;;;;5.03;2.13;;;1.20;99.90;;;;;;4952574;29;20384;-87
2022/01/07 12:32:37;;;;;;;6.73;2.50;;;1.10;99.90;;;;;;4938053;29;20027;-86
2022/01/07 12:35:09;;;;;;;6.90;2.40;;;1.20;99.90;;;;;;4936293;29;20175;-86
2022/01/07 12:37:35;;;;;;;6.75;1.92;;;1.20;99.90;;;;;;4936242;29;20030;-86
2022/01/07 12:40:04;;;;;;;7.03;2.23;;;1.30;99.90;;;;;;4974134;28;20526;-86
2022/01/07 12:42:38;;;;;;;5.93;2.10;;;1.40;99.90;;;;;;4974627;28;20125;-86
2022/01/07 12:45:04;;;;;;;7.27;2.20;;;1.40;99.90;;;;;;4974634;28;20079;-86
2022/01/07 12:47:31;;;;;;;5.83;2.40;;;1.40;99.90;;;;;;4956828;28;20034;-86
2022/01/07 12:50:02;;;;;;;6.13;2.33;;;1.50;99.90;;;;;;4975596;28;20578;-86
2022/01/07 12:52:30;;;;;;;6.38;2.15;;;1.50;99.90;;;;;;4976840;28;20483;-86
2022/01/07 12:55:06;;;;;;;6.57;2.13;;;1.50;99.90;;;;;;4974670;28;20057;-86
2022/01/07 12:57:46;;;;;;;8.27;2.73;;;1.50;99.90;;;;;;5022875;23;20039;-87
2022/01/07 13:03:26;;;;;;;5.27;2.27;;;1.70;99.90;;;;;;4978676;28;20085;-86
2022/01/07 13:05:52;;;;;;;6.07;1.87;;;1.90;99.90;;;;;;4981123;28;20038;-87
2022/01/07 13:08:19;;;;;;;4.70;1.60;;;2.20;99.90;;;;;;4980871;28;20102;-87
2022/01/07 13:10:50;;;;;;;4.77;1.97;;;2.20;99.90;;;;;;4964160;28;20104;-87
2022/01/07 13:13:25;;;;;;;6.40;2.27;;;2.20;99.90;;;;;;4981804;28;20027;-87
2022/01/07 13:15:54;;;;;;;5.07;2.10;;;2.20;99.90;;;;;;4983774;28;20122;-86
2022/01/07 13:18:29;;;;;;;4.87;1.80;;;2.10;99.90;;;;;;4982878;28;20431;-87
2022/01/07 13:21:30;;;;;;;;;;;;;;;;;;;;;
2022/01/07 13:24:17;;;;;;;3.57;1.30;;;2.10;99.90;;;;;;4976131;28;20110;-87
2022/01/07 13:26:55;;;;;;;;;;;;;;;;;;;;;
2022/01/07 13:29:36;;;;;;;4.53;1.90;;;1.90;99.90;;;;;;4955534;29;20450;-88
2022/01/07 13:32:41;;;;;;;3.10;1.33;;;1.80;99.90;;;;;;4949383;29;20038;-87
2022/01/07 13:38:23;;;;;;;3.50;1.47;;;1.80;99.90;;;;;;4930231;29;20044;-87
2022/01/07 13:41:15;;;;;;;5.03;1.73;;;1.70;99.90;;;;;;4929617;29;20039;-88
2022/01/07 13:44:07;;;;;;;4.83;2.00;;;1.70;99.90;;;;;;4928268;29;20458;-87
2022/01/07 13:47:01;;;;;;;3.92;1.30;;;1.70;99.90;;;;;;4946200;28;20087;-87
2022/01/07 13:50:29;;;;;;;4.23;1.57;;;1.70;99.90;;;;;;4950518;29;20027;-87
2022/01/07 13:56:53;;;;;;;3.03;1.07;;;1.70;99.90;;;;;;4890247;29;20052;-89
2022/01/07 14:03:44;;;;;;;6.77;1.57;;;2.00;99.90;;;;;;4829076;29;20030;-88
2022/01/07 14:32:58;;;;;;;5.53;1.30;;;1.60;99.90;;;;;;4956166;28;20050;-89
2022/01/07 14:38:52;;;;;;;;;;;;;;;;;;;;;
2022/01/07 14:41:53;;;;;;;4.07;1.40;;;1.60;99.90;;;;;;4968257;29;20181;-89
2022/01/07 14:44:28;;;;;;;4.03;1.33;;;1.70;99.90;;;;;;4939009;29;20050;-89
2022/01/07 14:47:58;;;;;;;2.03;0.87;;;1.70;99.90;;;;;;4966447;29;20028;-87
2022/01/07 14:51:18;;;;;;;;;;;;;;;;;;;;;
2022/01/07 14:54:34;;;;;;;2.60;1.20;;;1.70;99.90;;;;;;4964289;29;20475;-88
2022/01/07 14:57:41;;;;;;;2.17;0.70;;;1.70;99.90;;;;;;4924615;29;20481;-89
2022/01/07 15:00:47;;;;;;;1.53;0.87;;;1.70;99.90;;;;;;4957178;29;20102;-90
2022/01/07 15:04:14;;;;;;;;;;;;;;;;;;;;;
2022/01/07 15:07:19;;;;;;;;;;;;;;;;;;;;;
2022/01/07 15:10:19;;;;;;;2.37;1.00;;;1.60;99.90;;;;;;4886258;29;20092;-90
2022/01/07 16:03:42;;;;;;;3.70;0.83;;;1.60;99.90;;;;;;1595962;23;20318;-87
2022/01/07 16:06:08;;;;;;;3.97;0.60;;;1.70;99.90;;;;;;4950721;29;20079;-88
2022/01/07 17:52:14;;;;;;;3.97;1.20;;;1.80;99.90;;;;;;5011454;28;20042;-87
2022/01/07 17:54:46;;;;;;;2.17;0.80;;;1.80;99.90;;;;;;4993809;28;20022;-88
2022/01/07 17:57:12;;;;;;;2.30;0.70;;;1.70;99.90;;;;;;4992092;28;20019;-88
2022/01/07 18:03:18;;;;;;;4.50;1.13;;;1.70;99.90;;;;;;4912241;29;20039;-90
2022/01/07 18:59:56;;;;;;;0.70;0.30;;;1.70;99.90;;;;;;4977923;28;20070;-90
2022/01/07 19:02:22;;;;;;;1.90;0.87;;;1.70;99.90;;;;;;4963442;28;20510;-90
2022/01/07 19:04:48;;;;;;;0.90;0.40;;;1.60;99.90;;;;;;4976752;28;20086;-90
2022/01/07 19:07:15;;;;;;;2.30;0.53;;;1.60;99.90;;;;;;4958998;28;20031;-90
2022/01/07 19:09:40;;;;;;;2.10;0.63;;;1.60;99.90;;;;;;4960170;28;20454;-90
2022/01/07 19:12:06;;;;;;;2.27;0.50;;;1.60;99.90;;;;;;4958649;28;20030;-87
2022/01/07 19:14:32;;;;;;;3.07;1.00;;;1.60;99.90;;;;;;4959465;28;20558;-86
2022/01/07 19:16:58;;;;;;;2.63;0.70;;;1.60;99.90;;;;;;4961815;28;20031;-85
2022/01/07 19:19:23;;;;;;;1.80;0.63;;;1.60;99.90;;;;;;4956586;28;20051;-86
2022/01/07 19:21:49;;;;;;;1.10;0.27;;;1.60;99.90;;;;;;4961576;28;20030;-86
2022/01/07 19:24:14;;;;;;;2.47;0.90;;;1.50;99.90;;;;;;4953414;28;20023;-85
2022/01/07 19:26:40;;;;;;;2.50;0.83;;;1.50;99.90;;;;;;4953224;29;20488;-86
2022/01/07 19:29:06;;;;;;;2.23;1.07;;;1.50;99.90;;;;;;4952072;28;20023;-85
2022/01/07 19:31:32;;;;;;;3.63;1.00;;;1.50;99.90;;;;;;4953303;29;20042;-85
2022/01/07 19:33:58;;;;;;;4.03;0.93;;;1.50;99.90;;;;;;4961972;28;20030;-86
2022/01/07 19:36:24;;;;;;;1.97;0.73;;;1.50;99.90;;;;;;4973916;28;20073;-89
2022/01/07 19:38:49;;;;;;;1.60;0.63;;;1.50;99.90;;;;;;4955171;28;20031;-88
2022/01/07 19:41:15;;;;;;;2.37;0.90;;;1.40;99.90;;;;;;4959586;29;20031;-90
2022/01/07 19:43:42;;;;;;;1.67;0.70;;;1.40;99.90;;;;;;4958630;28;20058;-88
2022/01/07 19:46:08;;;;;;;2.77;0.90;;;1.40;99.90;;;;;;4951747;28;20043;-88
2022/01/07 19:48:34;;;;;;;2.20;0.90;;;1.30;99.90;;;;;;4919899;29;20130;-88
2022/01/07 19:51:00;;;;;;;2.93;0.50;;;1.30;99.90;;;;;;4936817;29;20032;-88
2022/01/07 19:53:26;;;;;;;2.03;0.70;;;1.30;99.90;;;;;;4921678;28;20055;-89
2022/01/07 19:55:51;;;;;;;1.90;0.70;;;1.30;99.90;;;;;;4954537;28;20483;-88
2022/01/07 19:58:17;;;;;;;2.00;0.67;;;1.30;99.90;;;;;;4951472;28;20047;-88
2022/01/07 20:00:43;;;;;;;1.23;0.53;;;1.20;99.90;;;;;;4952279;29;20071;-88
2022/01/07 20:03:08;;;;;;;3.00;1.17;;;1.30;99.90;;;;;;4954796;28;20407;-89
2022/01/07 20:05:34;;;;;;;2.20;0.60;;;1.20;99.90;;;;;;4955233;28;20114;-87
2022/01/07 20:08:00;;;;;;;1.67;0.50;;;1.20;99.90;;;;;;4943147;28;20546;-86
2022/01/07 20:10:26;;;;;;;2.13;0.87;;;1.30;99.90;;;;;;4972951;28;20102;-86
2022/01/07 20:12:52;;;;;;;2.03;0.93;;;1.20;99.90;;;;;;4973936;28;20042;-86
2022/01/07 20:15:18;;;;;;;2.60;0.70;;;1.30;99.90;;;;;;4971796;28;20403;-87
2022/01/07 20:17:45;;;;;;;2.10;0.73;;;1.30;99.90;;;;;;4953241;28;20042;-87
2022/01/07 20:20:13;;;;;;;2.83;0.80;;;1.30;99.90;;;;;;4954828;29;20123;-87
2022/01/07 20:22:39;;;;;;;1.90;0.70;;;1.40;99.90;;;;;;4953510;28;20038;-87
2022/01/07 20:25:06;;;;;;;2.47;0.80;;;1.30;99.90;;;;;;4953629;28;20468;-87
2022/01/07 20:27:32;;;;;;;2.67;0.97;;;1.40;99.90;;;;;;4956971;28;20086;-86
2022/01/07 20:29:57;;;;;;;3.93;1.10;;;1.40;99.90;;;;;;4957044;29;20035;-86
2022/01/07 20:32:23;;;;;;;1.17;0.50;;;1.40;99.90;;;;;;4957005;28;20512;-86
2022/01/07 20:34:49;;;;;;;2.63;0.70;;;1.40;99.90;;;;;;4956152;28;20023;-86
2022/01/07 20:37:14;;;;;;;2.30;0.67;;;1.40;99.90;;;;;;4957480;28;20126;-86
2022/01/07 20:39:40;;;;;;;1.20;0.57;;;1.50;99.90;;;;;;4956438;28;20035;-87
2022/01/07 20:42:06;;;;;;;1.53;0.57;;;1.40;99.90;;;;;;4958170;29;20034;-86
2022/01/07 20:44:31;;;;;;;1.57;0.73;;;1.40;99.90;;;;;;4957626;28;20086;-87
2022/01/07 20:46:57;;;;;;;2.80;0.90;;;1.40;99.90;;;;;;4958644;28;20174;-87
2022/01/07 20:49:23;;;;;;;3.07;0.80;;;1.40;99.90;;;;;;4956479;29;20075;-86
2022/01/07 20:51:53;;;;;;;2.03;0.70;;;1.40;99.90;;;;;;4952827;28;20064;-86
2022/01/07 20:54:21;;;;;;;1.70;0.70;;;1.40;99.90;;;;;;4921713;29;20047;-86
2022/01/07 20:56:47;;;;;;;1.53;0.60;;;1.40;99.90;;;;;;4938878;29;20465;-87
2022/01/07 20:59:13;;;;;;;1.83;0.60;;;1.50;99.90;;;;;;4941541;28;20035;-86
2022/01/07 21:01:38;;;;;;;2.23;0.80;;;1.40;99.90;;;;;;4956503;28;20391;-87
2022/01/07 21:04:04;;;;;;;1.47;0.47;;;1.40;99.90;;;;;;4956507;28;20023;-86
2022/01/07 21:06:30;;;;;;;0.80;0.40;;;1.40;99.90;;;;;;4958239;28;20031;-86
2022/01/07 21:08:56;;;;;;;0.70;0.40;;;1.40;99.90;;;;;;4959893;28;20028;-87
2022/01/07 21:11:22;;;;;;;1.03;0.40;;;1.40;99.90;;;;;;4956316;29;20058;-87
2022/01/07 21:13:48;;;;;;;1.77;0.70;;;1.50;99.90;;;;;;4956537;29;20558;-87
2022/01/07 21:16:13;;;;;;;2.23;0.67;;;1.50;99.90;;;;;;4955634;28;20491;-87
2022/01/07 21:18:39;;;;;;;1.40;0.50;;;1.40;99.90;;;;;;4956351;28;20023;-87
2022/01/07 21:21:04;;;;;;;0.23;0.17;;;1.40;99.90;;;;;;4956932;28;20031;-85
2022/01/07 21:23:30;;;;;;;1.03;0.50;;;1.40;99.90;;;;;;4956188;29;20042;-87
2022/01/07 21:25:59;;;;;;;0.97;0.43;;;1.40;99.90;;;;;;4955604;28;20039;-87
2022/01/07 21:28:25;;;;;;;1.30;0.40;;;1.30;99.90;;;;;;4959643;28;20023;-86
2022/01/07 21:30:51;;;;;;;0.93;0.50;;;1.30;99.90;;;;;;4958245;28;20030;-87
2022/01/07 21:33:17;;;;;;;1.97;0.43;;;1.30;99.90;;;;;;4956813;28;20054;-86
2022/01/07 21:35:43;;;;;;;0.90;0.30;;;1.20;99.90;;;;;;4957642;28;20542;-85
2022/01/07 21:38:09;;;;;;;0.53;0.27;;;1.20;99.90;;;;;;4954849;28;20030;-87
2022/01/07 21:40:35;;;;;;;2.07;0.60;;;1.20;99.90;;;;;;4957890;29;20076;-87
2022/01/07 21:43:01;;;;;;;1.07;0.37;;;1.10;99.90;;;;;;4955605;28;20062;-86
2022/01/07 21:45:28;;;;;;;1.13;0.40;;;1.10;99.90;;;;;;4956005;28;20031;-88
2022/01/07 21:47:55;;;;;;;3.07;0.83;;;1.10;99.90;;;;;;4956511;28;20034;-86
2022/01/07 21:50:26;;;;;;;1.67;0.30;;;1.10;99.90;;;;;;4956101;28;20443;-87
2022/01/07 21:52:52;;;;;;;1.75;0.47;;;1.10;99.90;;;;;;4957859;28;20027;-89
2022/01/07 21:55:19;;;;;;;4.50;0.50;;;1.00;99.90;;;;;;4955950;29;20039;-89
2022/01/07 21:57:45;;;;;;;0.40;0.23;;;1.00;99.90;;;;;;4954509;28;20035;-89
2022/01/07 22:00:15;;;;;;;3.80;0.40;;;1.00;99.90;;;;;;4955662;29;20035;-89
2022/01/07 22:02:41;;;;;;;1.30;0.40;;;1.00;99.90;;;;;;4955382;29;20114;-90
2022/01/07 22:05:07;;;;;;;1.33;0.57;;;0.90;99.90;;;;;;4955260;28;20036;-89
2022/01/07 22:07:33;;;;;;;1.53;0.60;;;0.90;99.90;;;;;;4957346;28;20034;-90
2022/01/07 22:09:58;;;;;;;2.00;0.70;;;0.90;99.90;;;;;;4958344;28;20034;-90
2022/01/07 22:12:24;;;;;;;1.23;0.50;;;0.90;99.90;;;;;;4959038;28;20031;-89
2022/01/07 22:14:49;;;;;;;1.33;0.40;;;0.90;99.90;;;;;;4978624;28;20273;-89
2022/01/07 22:17:16;;;;;;;0.67;0.20;;;0.90;99.90;;;;;;4962620;28;20156;-89
2022/01/07 22:19:42;;;;;;;1.23;0.43;;;1.00;99.90;;;;;;4961287;28;20020;-89
2022/01/07 22:22:08;;;;;;;1.17;0.60;;;0.90;99.90;;;;;;4958454;29;20050;-89
2022/01/07 22:24:35;;;;;;;6.30;0.43;;;1.00;99.90;;;;;;4956448;28;20023;-89
2022/01/07 22:27:01;;;;;;;0.80;0.33;;;0.90;99.90;;;;;;4956447;28;20039;-89
2022/01/07 22:29:27;;;;;;;0.80;0.30;;;0.90;99.90;;;;;;4955603;28;20415;-88
2022/01/07 22:31:53;;;;;;;1.13;0.40;;;0.90;99.90;;;;;;4956207;28;21102;-88
2022/01/07 22:34:18;;;;;;;1.03;0.40;;;0.90;99.90;;;;;;4957103;29;20039;-88
2022/01/07 22:36:44;;;;;;;1.07;0.40;;;0.90;99.90;;;;;;4956061;28;20122;-89
2022/01/07 22:39:10;;;;;;;3.23;0.60;;;0.90;99.90;;;;;;4955947;28;20086;-88
2022/01/07 22:41:36;;;;;;;1.30;0.37;;;1.00;99.90;;;;;;4955383;28;20046;-88
2022/01/07 22:44:01;;;;;;;1.07;0.30;;;1.00;99.90;;;;;;4956390;29;20357;-88
2022/01/07 22:46:27;;;;;;;4.03;0.70;;;1.00;99.90;;;;;;4957158;29;20110;-88
2022/01/07 22:48:53;;;;;;;1.57;0.37;;;1.00;99.90;;;;;;4954823;28;20035;-88
2022/01/07 22:51:18;;;;;;;0.70;0.37;;;1.10;99.90;;;;;;4953638;28;20035;-88
2022/01/07 22:53:44;;;;;;;1.07;0.50;;;1.10;99.90;;;;;;4920186;29;20035;-88
2022/01/07 22:56:18;;;;;;;1.97;0.50;;;1.00;99.90;;;;;;4921295;29;20078;-88
2022/01/07 22:58:46;;;;;;;3.57;0.40;;;1.00;99.90;;;;;;4936281;29;20051;-88
2022/01/07 23:01:14;;;;;;;0.90;0.37;;;1.00;99.90;;;;;;4937469;29;20035;-88
2022/01/07 23:03:43;;;;;;;1.17;0.53;;;1.00;99.90;;;;;;4955414;29;20035;-88
2022/01/07 23:06:09;;;;;;;1.17;0.40;;;0.90;99.90;;;;;;4956847;28;20023;-88
2022/01/07 23:08:35;;;;;;;1.43;0.60;;;0.90;99.90;;;;;;4965304;28;20031;-87
2022/01/07 23:11:01;;;;;;;1.17;0.33;;;0.90;99.90;;;;;;4941162;28;20085;-88
2022/01/07 23:13:27;;;;;;;1.17;0.60;;;0.90;99.90;;;;;;4955397;29;20031;-87
2022/01/07 23:15:52;;;;;;;2.03;0.50;;;0.90;99.90;;;;;;4955680;29;20107;-88
2022/01/07 23:18:27;;;;;;;1.37;0.40;;;0.90;99.90;;;;;;4954629;28;20058;-88
2022/01/07 23:20:56;;;;;;;1.17;0.50;;;0.90;99.90;;;;;;4956973;29;20078;-88
2022/01/07 23:23:22;;;;;;;1.90;0.60;;;1.00;99.90;;;;;;4955473;28;20023;-87
2022/01/07 23:25:48;;;;;;;1.93;0.73;;;1.00;99.90;;;;;;4955312;28;20506;-88
2022/01/07 23:28:14;;;;;;;2.10;0.70;;;1.00;99.90;;;;;;4951374;28;20038;-88
2022/01/07 23:30:40;;;;;;;1.00;0.40;;;1.00;99.90;;;;;;4936876;29;20067;-87
2022/01/07 23:33:09;;;;;;;1.87;0.87;;;1.10;99.90;;;;;;4935911;29;20438;-86
2022/01/07 23:35:34;;;;;;;1.30;0.50;;;1.10;99.90;;;;;;4941538;28;20047;-88
2022/01/07 23:38:00;;;;;;;0.83;0.30;;;1.10;99.90;;;;;;4956136;28;20058;-87
2022/01/07 23:40:28;;;;;;;1.00;0.50;;;1.10;99.90;;;;;;4958336;29;20028;-88
2022/01/07 23:42:58;;;;;;;1.47;0.40;;;1.10;99.90;;;;;;4957943;29;20063;-88
2022/01/07 23:45:26;;;;;;;0.50;0.30;;;1.10;99.90;;;;;;4955869;28;20031;-88
2022/01/07 23:47:55;;;;;;;1.00;0.30;;;1.20;99.90;;;;;;4956546;28;20031;-88
2022/01/07 23:50:21;;;;;;;1.70;0.50;;;1.20;99.90;;;;;;4956475;28;20106;-88
2022/01/07 23:52:47;;;;;;;1.60;0.30;;;1.20;99.90;;;;;;4952822;28;20436;-87
2022/01/07 23:55:13;;;;;;;0.80;0.20;;;1.10;99.90;;;;;;4936751;29;20429;-88
2022/01/07 23:57:38;;;;;;;2.07;0.20;;;1.10;99.90;;;;;;4936762;29;20407;-88
